createdAt,value
2018-06-02T00:00:08.882Z,69.25
2018-06-02T00:02:36.886Z,69.12
2018-06-02T00:05:04.544Z,68.57
2018-06-02T00:10:22.878Z,69.28
2018-06-02T00:12:50.614Z,69.66
2018-06-02T00:15:18.201Z,69.90
2018-06-02T00:17:45.863Z,69.53
2018-06-02T00:20:13.473Z,69.78
2018-06-02T00:22:41.049Z,70.18
2018-06-02T00:25:09.608Z,69.97
2018-06-02T00:27:37.260Z,69.71
2018-06-02T00:30:05.407Z,69.47
2018-06-02T00:32:33.066Z,69.40
2018-06-02T00:37:34.739Z,69.50
2018-06-02T00:40:02.458Z,69.56
2018-06-02T00:42:30.182Z,69.50
2018-06-02T00:44:57.874Z,69.31
2018-06-02T00:50:00.265Z,69.00
2018-06-02T00:52:27.888Z,68.91
2018-06-02T00:55:07.342Z,68.82
2018-06-02T00:57:35.004Z,68.89
2018-06-02T01:00:04.056Z,68.85
2018-06-02T01:02:31.796Z,68.68
2018-06-02T01:04:59.480Z,68.87
2018-06-02T01:07:27.227Z,68.85
2018-06-02T01:09:54.838Z,68.83
2018-06-02T01:12:22.639Z,69.33
2018-06-02T01:14:50.308Z,69.35
2018-06-02T01:17:17.989Z,69.32
2018-06-02T01:19:47.389Z,69.35
2018-06-02T01:22:15.177Z,69.20
2018-06-02T01:24:43.059Z,69.19
2018-06-02T01:27:10.824Z,69.38
2018-06-02T01:29:38.483Z,69.14
2018-06-02T01:32:06.108Z,69.54
2018-06-02T01:34:33.729Z,69.78
2018-06-02T01:37:01.590Z,69.78
2018-06-02T01:39:29.306Z,70.02
2018-06-02T01:41:57.606Z,70.11
2018-06-02T01:44:25.299Z,70.29
2018-06-02T01:46:52.876Z,70.38
2018-06-02T01:49:20.426Z,70.65
2018-06-02T01:51:48.126Z,70.55
2018-06-02T01:54:15.871Z,70.63
2018-06-02T01:56:43.604Z,70.61
2018-06-02T01:59:11.236Z,70.54
2018-06-02T02:01:38.804Z,70.39
2018-06-02T02:04:06.369Z,70.38
2018-06-02T02:06:36.059Z,70.27
2018-06-02T02:09:04.063Z,70.13
2018-06-02T02:11:32.466Z,70.04
2018-06-02T02:14:00.117Z,70.13
2018-06-02T02:16:27.796Z,70.27
2018-06-02T02:18:55.404Z,70.52
2018-06-02T02:21:24.705Z,70.52
2018-06-02T02:23:52.469Z,70.61
2018-06-02T02:26:20.152Z,70.88
2018-06-02T02:28:48.064Z,71.04
2018-06-02T02:31:15.794Z,71.21
2018-06-02T02:33:43.352Z,71.16
2018-06-02T02:36:11.987Z,71.09
2018-06-02T02:38:40.069Z,70.87
2018-06-02T02:41:07.999Z,70.67
2018-06-02T02:43:36.070Z,70.55
2018-06-02T02:46:04.213Z,70.36
2018-06-02T02:48:32.667Z,70.06
2018-06-02T02:51:00.382Z,70.63
2018-06-02T02:53:28.053Z,70.60
2018-06-02T02:55:55.696Z,70.76
2018-06-02T02:58:23.535Z,70.68
2018-06-02T03:00:51.188Z,70.58
2018-06-02T03:03:18.714Z,70.78
2018-06-02T03:05:46.245Z,70.67
2018-06-02T03:08:13.775Z,71.01
2018-06-02T03:10:41.339Z,71.13
2018-06-02T03:13:10.182Z,71.01
2018-06-02T03:15:37.882Z,70.90
2018-06-02T03:18:05.553Z,70.83
2018-06-02T03:20:33.112Z,70.41
2018-06-02T03:23:00.639Z,70.50
2018-06-02T03:25:28.815Z,71.09
2018-06-02T03:27:56.523Z,71.34
2018-06-02T03:30:24.076Z,71.83
2018-06-02T03:32:51.693Z,72.16
2018-06-02T03:35:19.406Z,72.37
2018-06-02T03:37:47.153Z,72.45
2018-06-02T03:40:14.826Z,72.31
2018-06-02T03:42:42.448Z,72.46
2018-06-02T03:45:10.545Z,72.35
2018-06-02T03:47:38.468Z,72.02
2018-06-02T03:50:06.011Z,71.80
2018-06-02T03:52:33.587Z,71.59
2018-06-02T03:55:01.159Z,71.70
2018-06-02T03:57:28.824Z,71.45
2018-06-02T03:59:56.417Z,71.60
2018-06-02T04:02:24.362Z,71.53
2018-06-02T04:04:51.911Z,71.61
2018-06-02T04:07:19.437Z,71.50
2018-06-02T04:09:47.093Z,71.81
2018-06-02T04:12:14.730Z,71.75
2018-06-02T04:14:42.377Z,71.94
2018-06-02T04:17:10.047Z,71.74
2018-06-02T04:19:37.602Z,71.67
2018-06-02T04:22:05.215Z,71.61
2018-06-02T04:24:32.773Z,71.53
2018-06-02T04:27:00.294Z,71.38
2018-06-02T04:29:27.875Z,71.29
2018-06-02T04:31:55.445Z,71.06
2018-06-02T04:34:23.055Z,70.86
2018-06-02T04:36:50.847Z,70.86
2018-06-02T04:39:18.552Z,70.84
2018-06-02T04:41:46.246Z,71.33
2018-06-02T04:44:13.844Z,71.11
2018-06-02T04:46:41.389Z,71.21
2018-06-02T04:49:09.117Z,70.96
2018-06-02T04:51:36.848Z,70.51
2018-06-02T04:56:38.336Z,70.03
2018-06-02T05:01:39.826Z,69.89
2018-06-02T05:04:07.478Z,69.66
2018-06-02T05:06:35.137Z,69.38
2018-06-02T05:09:02.805Z,69.37
2018-06-02T05:11:34.794Z,69.03
2018-06-02T05:14:02.469Z,68.88
2018-06-02T05:16:30.276Z,68.98
2018-06-02T05:18:57.923Z,68.75
2018-06-02T05:21:25.560Z,68.53
2018-06-02T05:23:53.183Z,68.17
2018-06-02T05:26:20.843Z,67.63
2018-06-02T05:28:48.441Z,67.84
2018-06-02T05:31:16.120Z,67.89
2018-06-02T05:33:43.853Z,67.91
2018-06-02T05:36:11.524Z,67.78
2018-06-02T05:38:40.183Z,67.71
2018-06-02T05:41:07.841Z,67.71
2018-06-02T05:43:35.569Z,67.84
2018-06-02T05:46:03.347Z,67.75
2018-06-02T05:48:30.952Z,67.62
2018-06-02T05:50:58.513Z,67.48
2018-06-02T05:53:26.074Z,67.40
2018-06-02T05:55:53.682Z,67.19
2018-06-02T05:58:21.318Z,66.83
2018-06-02T06:00:48.884Z,66.15
2018-06-02T06:03:17.588Z,66.53
2018-06-02T06:05:45.252Z,66.53
2018-06-02T06:08:12.868Z,66.64
2018-06-02T06:10:41.011Z,66.86
2018-06-02T06:13:08.891Z,67.04
2018-06-02T06:15:36.454Z,66.71
2018-06-02T06:18:04.820Z,66.45
2018-06-02T06:20:32.564Z,66.73
2018-06-02T06:23:00.237Z,66.67
2018-06-02T06:25:27.907Z,66.30
2018-06-02T06:27:55.556Z,66.42
2018-06-02T06:30:23.786Z,66.85
2018-06-02T06:32:51.485Z,67.16
2018-06-02T06:35:20.237Z,66.84
2018-06-02T06:37:51.887Z,66.17
2018-06-02T06:40:19.407Z,65.94
2018-06-02T06:42:47.015Z,66.12
2018-06-02T06:45:14.663Z,66.09
2018-06-02T06:47:43.899Z,66.13
2018-06-02T06:50:11.604Z,65.72
2018-06-02T06:52:39.372Z,65.52
2018-06-02T06:55:07.722Z,65.65
2018-06-02T06:57:35.420Z,65.39
2018-06-02T07:00:03.104Z,65.48
2018-06-02T07:02:31.173Z,65.77
2018-06-02T07:07:33.310Z,64.76
2018-06-02T07:10:01.809Z,65.19
2018-06-02T07:12:30.411Z,65.27
2018-06-02T07:14:58.073Z,65.00
2018-06-02T07:17:25.696Z,65.03
2018-06-02T07:19:53.541Z,64.79
2018-06-02T07:22:21.264Z,65.00
2018-06-02T07:24:49.203Z,65.88
2018-06-02T07:27:18.204Z,66.04
2018-06-02T07:29:45.832Z,65.79
2018-06-02T07:32:13.519Z,67.00
2018-06-02T07:34:41.199Z,66.35
2018-06-02T07:37:10.578Z,67.29
2018-06-02T07:39:38.369Z,67.88
2018-06-02T07:42:07.956Z,67.90
2018-06-02T07:44:35.899Z,67.73
2018-06-02T07:49:31.650Z,67.04
2018-06-02T07:51:59.247Z,69.09
2018-06-02T07:54:30.512Z,69.10
2018-06-02T07:56:58.202Z,68.54
2018-06-02T07:59:25.853Z,67.92
2018-06-02T08:01:54.478Z,67.85
2018-06-02T08:04:22.315Z,68.74
2018-06-02T08:06:50.781Z,68.47
2018-06-02T08:09:19.095Z,68.31
2018-06-02T08:11:49.935Z,68.00
2018-06-02T08:14:18.877Z,67.83
2018-06-02T08:16:47.789Z,67.68
2018-06-02T08:19:20.568Z,67.83
2018-06-02T08:21:51.680Z,67.99
2018-06-02T08:24:57.057Z,67.88
2018-06-02T08:27:45.985Z,67.91
2018-06-02T08:30:30.952Z,68.06
2018-06-02T08:35:58.705Z,67.26
2018-06-02T08:38:30.982Z,67.91
2018-06-02T08:41:03.379Z,68.14
2018-06-02T08:43:44.483Z,68.21
2018-06-02T08:46:12.044Z,67.96
2018-06-02T08:51:27.781Z,68.04
2018-06-02T08:53:59.040Z,67.99
2018-06-02T08:56:27.795Z,67.75
2018-06-02T08:58:56.285Z,67.61
2018-06-02T09:01:28.122Z,67.67
2018-06-02T09:03:58.799Z,67.33
2018-06-02T09:06:27.203Z,67.44
2018-06-02T09:08:57.594Z,67.53
2018-06-02T09:11:29.023Z,67.44
2018-06-02T09:13:56.932Z,67.12
2018-06-02T09:16:25.684Z,66.68
2018-06-02T09:19:03.359Z,66.15
2018-06-02T09:21:31.267Z,66.11
2018-06-02T09:23:59.015Z,66.34
2018-06-02T09:26:29.986Z,65.84
2018-06-02T09:28:57.732Z,65.43
2018-06-02T09:31:26.381Z,65.25
2018-06-02T09:33:56.752Z,64.98
2018-06-02T09:39:09.689Z,64.65
2018-06-02T09:41:37.786Z,64.59
2018-06-02T09:44:05.659Z,64.77
2018-06-02T09:46:33.316Z,64.31
2018-06-02T09:49:02.663Z,64.42
2018-06-02T09:51:30.475Z,64.50
2018-06-02T09:53:58.265Z,64.34
2018-06-02T09:56:28.400Z,64.30
2018-06-02T09:58:57.014Z,64.42
2018-06-02T10:01:29.337Z,64.00
2018-06-02T10:03:58.542Z,64.53
2018-06-02T10:06:28.282Z,63.58
2018-06-02T10:08:55.941Z,63.08
2018-06-02T10:11:23.677Z,63.12
2018-06-02T10:13:53.845Z,63.33
2018-06-02T10:16:22.112Z,63.52
2018-06-02T10:18:49.756Z,62.95
2018-06-02T10:21:18.485Z,63.38
2018-06-02T10:23:47.280Z,62.97
2018-06-02T10:26:14.961Z,63.62
2018-06-02T10:28:42.647Z,63.95
2018-06-02T10:31:13.894Z,63.58
2018-06-02T10:33:43.564Z,63.54
2018-06-02T10:36:14.451Z,62.69
2018-06-02T10:38:42.246Z,62.14
2018-06-02T10:41:09.924Z,62.67
2018-06-02T10:43:42.403Z,62.50
2018-06-02T10:46:12.914Z,62.17
2018-06-02T10:48:41.159Z,61.66
2018-06-02T10:51:09.908Z,61.79
2018-06-02T10:53:39.760Z,61.77
2018-06-02T10:56:08.135Z,61.59
2018-06-02T10:58:38.667Z,61.12
2018-06-02T11:01:08.055Z,60.14
2018-06-02T11:03:35.816Z,59.26
2018-06-02T11:06:04.885Z,59.77
2018-06-02T11:08:35.961Z,59.36
2018-06-02T11:11:11.257Z,58.83
2018-06-02T11:13:38.901Z,58.34
2018-06-02T11:16:11.259Z,58.20
2018-06-02T11:18:39.358Z,57.86
2018-06-02T11:21:08.300Z,58.01
2018-06-02T11:23:37.633Z,58.34
2018-06-02T11:26:05.333Z,58.67
2018-06-02T11:28:38.269Z,58.02
2018-06-02T11:31:06.997Z,57.81
2018-06-02T11:33:35.399Z,60.55
2018-06-02T11:36:05.316Z,59.08
2018-06-02T11:38:33.969Z,57.50
2018-06-02T11:41:01.636Z,58.04
2018-06-02T11:43:34.894Z,55.84
2018-06-02T11:46:05.719Z,55.78
2018-06-02T11:48:43.288Z,55.14
2018-06-02T11:51:12.401Z,55.27
2018-06-02T11:53:40.169Z,54.03
2018-06-02T11:56:07.882Z,53.67
2018-06-02T11:58:36.610Z,52.71
2018-06-02T12:14:38.021Z,52.90
2018-06-02T12:19:59.831Z,52.52
2018-06-02T12:22:40.803Z,51.81
2018-06-02T12:25:08.652Z,52.00
2018-06-02T12:27:36.988Z,51.37
2018-06-02T12:30:05.583Z,50.35
2018-06-02T12:32:37.960Z,48.46
2018-06-02T12:35:12.520Z,49.65
2018-06-02T12:37:43.849Z,50.17
2018-06-02T12:40:21.044Z,49.24
2018-06-02T12:42:51.161Z,47.13
2018-06-02T12:45:18.907Z,47.26
2018-06-02T12:47:46.672Z,49.96
2018-06-02T12:50:15.323Z,49.36
2018-06-02T12:52:43.246Z,48.18
2018-06-02T12:55:21.935Z,47.15
2018-06-02T12:57:52.282Z,46.53
2018-06-02T13:00:24.455Z,47.49
2018-06-02T13:02:52.235Z,47.85
2018-06-02T13:05:20.875Z,48.04
2018-06-02T13:10:26.775Z,46.95
2018-06-02T13:13:04.521Z,46.37
2018-06-02T13:15:37.707Z,45.40
2018-06-02T13:18:07.267Z,43.29
2018-06-02T13:20:34.939Z,45.03
2018-06-02T13:23:05.425Z,43.22
2018-06-02T13:28:20.044Z,43.07
2018-06-02T13:35:11.756Z,43.77
2018-06-02T13:37:47.275Z,43.56
2018-06-02T13:40:16.553Z,42.26
2018-06-02T13:42:49.466Z,41.41
2018-06-02T13:45:17.567Z,41.69
2018-06-02T13:47:48.244Z,40.80
2018-06-02T13:50:16.903Z,39.46
2018-06-02T13:52:52.686Z,40.00
2018-06-02T13:55:30.400Z,39.77
2018-06-02T13:58:04.092Z,40.37
2018-06-02T14:00:36.190Z,39.61
2018-06-02T14:03:07.997Z,39.56
2018-06-02T14:05:36.993Z,39.55
2018-06-02T14:08:17.774Z,40.12
2018-06-02T14:10:45.519Z,40.25
2018-06-02T14:13:18.534Z,41.58
2018-06-02T14:15:46.634Z,41.96
2018-06-02T14:18:23.579Z,41.31
2018-06-02T14:26:30.862Z,38.97
2018-06-02T14:31:41.849Z,39.23
2018-06-02T14:34:34.313Z,40.29
2018-06-02T14:40:09.572Z,39.12
2018-06-02T15:07:43.618Z,39.03
2018-06-02T15:10:21.945Z,40.43
2018-06-02T15:13:02.604Z,41.25
2018-06-02T15:15:33.977Z,41.75
2018-06-02T15:18:10.375Z,42.69
2018-06-02T15:20:45.144Z,43.21
2018-06-02T15:23:23.792Z,43.45
2018-06-02T15:26:13.270Z,43.76
2018-06-02T15:28:49.264Z,44.45
2018-06-02T15:31:26.854Z,45.19
2018-06-02T15:34:00.368Z,45.52
2018-06-02T15:50:17.231Z,45.50
2018-06-02T15:52:59.063Z,46.46
2018-06-02T15:55:30.537Z,47.26
2018-06-02T15:58:00.773Z,47.67
2018-06-02T16:00:32.320Z,47.08
2018-06-02T16:03:01.246Z,46.86
2018-06-02T16:05:32.736Z,46.13
2018-06-02T16:08:13.224Z,46.12
2018-06-02T16:10:42.743Z,44.96
2018-06-02T16:13:13.953Z,44.35
2018-06-02T16:15:52.831Z,44.63
2018-06-02T16:18:31.190Z,44.34
2018-06-02T16:21:08.350Z,44.52
2018-06-02T16:23:54.501Z,44.61
2018-06-02T16:26:24.525Z,44.54
2018-06-02T16:29:47.239Z,44.83
2018-06-02T16:32:21.552Z,44.21
2018-06-02T16:34:58.913Z,43.67
2018-06-02T16:37:38.579Z,42.92
2018-06-02T16:40:09.584Z,40.84
2018-06-02T16:42:41.640Z,41.56
2018-06-02T16:47:55.347Z,42.71
2018-06-02T16:50:25.623Z,43.59
2018-06-02T16:52:58.176Z,43.86
2018-06-02T16:55:28.234Z,43.37
2018-06-02T16:57:59.957Z,43.16
2018-06-02T17:00:30.029Z,43.35
2018-06-02T17:02:59.919Z,43.69
2018-06-02T17:05:32.375Z,43.73
2018-06-02T17:08:02.220Z,43.58
2018-06-02T17:10:37.956Z,43.68
2018-06-02T17:13:11.556Z,43.35
2018-06-02T17:15:41.697Z,43.89
2018-06-02T17:18:10.843Z,43.96
2018-06-02T17:20:45.649Z,43.72
2018-06-02T17:23:17.189Z,43.61
2018-06-02T17:25:45.757Z,43.74
2018-06-02T17:28:16.199Z,44.09
2018-06-02T17:30:45.818Z,44.17
2018-06-02T17:33:23.806Z,43.93
2018-06-02T17:35:55.455Z,44.82
2018-06-02T17:38:28.214Z,44.92
2018-06-02T17:40:57.941Z,45.54
2018-06-02T17:43:30.388Z,45.65
2018-06-02T17:46:03.237Z,46.42
2018-06-02T17:48:37.052Z,46.51
2018-06-02T17:51:09.972Z,46.66
2018-06-02T17:53:41.772Z,47.09
2018-06-02T17:56:10.801Z,47.57
2018-06-02T17:58:40.810Z,47.86
2018-06-02T18:01:13.049Z,48.28
2018-06-02T18:03:42.737Z,48.51
2018-06-02T18:06:11.289Z,49.09
2018-06-02T18:08:42.661Z,49.83
2018-06-02T18:11:33.722Z,50.39
2018-06-02T18:14:04.783Z,50.61
2018-06-02T18:16:40.193Z,51.03
2018-06-02T18:19:14.335Z,51.58
2018-06-02T18:21:43.762Z,52.10
2018-06-02T18:24:13.190Z,52.34
2018-06-02T18:26:44.449Z,52.16
2018-06-02T18:29:17.988Z,52.47
2018-06-02T18:31:47.225Z,51.97
2018-06-02T18:34:19.346Z,52.54
2018-06-02T18:36:49.912Z,52.76
2018-06-02T18:39:23.587Z,53.02
2018-06-02T18:41:53.179Z,53.29
2018-06-02T18:44:24.555Z,53.24
2018-06-02T18:46:54.952Z,53.37
2018-06-02T18:49:25.643Z,53.53
2018-06-02T18:51:55.648Z,54.03
2018-06-02T18:54:26.526Z,54.22
2018-06-02T18:56:54.482Z,54.10
2018-06-02T18:59:22.058Z,54.74
2018-06-02T19:01:50.471Z,55.16
2018-06-02T19:04:19.108Z,55.51
2018-06-02T19:06:47.443Z,55.96
2018-06-02T19:09:15.126Z,56.35
2018-06-02T19:11:42.797Z,56.60
2018-06-02T19:14:14.939Z,56.69
2018-06-02T19:16:42.673Z,57.29
2018-06-02T19:19:13.577Z,57.49
2018-06-02T19:21:42.350Z,57.73
2018-06-02T19:24:11.560Z,57.84
2018-06-02T19:26:41.979Z,58.20
2018-06-02T19:29:13.573Z,57.77
2018-06-02T19:31:41.465Z,57.48
2018-06-02T19:34:10.404Z,56.96
2018-06-02T19:36:39.180Z,57.54
2018-06-02T19:39:06.971Z,57.82
2018-06-02T19:41:36.913Z,58.49
2018-06-02T19:44:04.624Z,58.60
2018-06-02T19:46:32.268Z,58.72
2018-06-02T19:49:01.788Z,58.92
2018-06-02T19:51:29.560Z,58.45
2018-06-02T19:53:57.290Z,57.78
2018-06-02T19:56:25.152Z,58.13
2018-06-02T19:58:52.894Z,58.66
2018-06-02T20:01:21.119Z,58.74
2018-06-02T20:03:51.934Z,58.32
2018-06-02T20:06:19.745Z,57.96
2018-06-02T20:08:47.805Z,58.65
2018-06-02T20:11:18.211Z,58.96
2018-06-02T20:13:46.525Z,58.66
2018-06-02T20:16:16.544Z,58.78
2018-06-02T20:18:44.781Z,58.72
2018-06-02T20:21:14.958Z,58.81
2018-06-02T20:23:43.214Z,58.73
2018-06-02T20:26:10.970Z,59.20
2018-06-02T20:28:39.456Z,59.15
2018-06-02T20:31:07.433Z,59.32
2018-06-02T20:33:35.196Z,59.50
2018-06-02T20:36:02.937Z,59.58
2018-06-02T20:38:30.744Z,59.20
2018-06-02T20:40:58.525Z,59.81
2018-06-02T20:43:26.347Z,60.21
2018-06-02T20:45:55.132Z,60.38
2018-06-02T20:48:26.247Z,60.33
2018-06-02T20:50:53.968Z,60.45
2018-06-02T20:53:22.329Z,60.13
2018-06-02T20:55:50.074Z,59.76
2018-06-02T20:58:17.867Z,59.26
2018-06-02T21:00:46.068Z,59.44
2018-06-02T21:03:13.913Z,59.54
2018-06-02T21:05:45.136Z,59.54
2018-06-02T21:08:13.773Z,59.50
2018-06-02T21:10:41.431Z,59.47
2018-06-02T21:13:09.268Z,59.56
2018-06-02T21:15:38.291Z,59.57
2018-06-02T21:18:09.691Z,59.23
2018-06-02T21:20:38.967Z,59.26
2018-06-02T21:23:07.654Z,59.29
2018-06-02T21:25:37.116Z,59.82
2018-06-02T21:28:05.401Z,60.04
2018-06-02T21:30:34.753Z,60.26
2018-06-02T21:33:03.296Z,60.24
2018-06-02T21:35:31.277Z,60.59
2018-06-02T21:37:59.808Z,60.54
2018-06-02T21:40:29.498Z,60.58
2018-06-02T21:42:57.176Z,60.36
2018-06-02T21:45:25.232Z,60.71
2018-06-02T21:47:53.096Z,61.39
2018-06-02T21:50:22.496Z,61.57
2018-06-02T21:52:53.075Z,62.81
2018-06-02T21:55:39.938Z,63.77
2018-06-02T21:58:15.884Z,65.20
2018-06-02T22:06:20.033Z,67.60
2018-06-02T22:15:54.776Z,69.79
2018-06-02T22:21:41.093Z,70.36
2018-06-02T22:24:19.467Z,70.72
2018-06-02T22:26:54.352Z,71.66
2018-06-02T22:29:24.648Z,71.88
2018-06-02T22:31:56.310Z,71.85
2018-06-02T22:34:27.866Z,71.74
2018-06-02T22:37:09.077Z,71.37
2018-06-02T22:39:38.269Z,71.83
2018-06-02T22:45:38.516Z,72.25
2018-06-02T22:48:39.256Z,72.14
2018-06-02T23:06:42.986Z,72.65
2018-06-02T23:09:15.272Z,72.05
2018-06-02T23:11:44.717Z,72.74
2018-06-02T23:14:14.160Z,72.27
2018-06-02T23:16:45.075Z,73.02
2018-06-02T23:19:16.462Z,72.91
2018-06-02T23:21:45.712Z,73.11
2018-06-02T23:24:14.905Z,73.54
2018-06-02T23:26:45.116Z,74.48
2018-06-02T23:29:15.609Z,74.22
2018-06-02T23:31:45.938Z,74.21
2018-06-02T23:34:16.026Z,74.73
2018-06-02T23:36:45.409Z,74.33
2018-06-02T23:39:16.891Z,74.45
2018-06-02T23:41:46.767Z,75.24
2018-06-02T23:44:16.438Z,74.72
2018-06-02T23:46:50.734Z,75.14
2018-06-02T23:49:23.778Z,75.43
2018-06-02T23:51:54.153Z,75.17
2018-06-02T23:54:25.362Z,75.16
2018-06-02T23:56:54.939Z,75.10
2018-06-02T23:59:26.558Z,75.20
